sensor_id;sensor_type;location;lat;lon;timestamp;pressure;altitude;pressure_sealevel;temperature;humidity
77469;BME280;68840;50.272;12.818;2023-08-30T00:00:06;95249;;;13.4;82.4
77469;BME280;68840;50.272;12.818;2023-08-30T00:02:05;95250;;;13.4;82.4
77469;BME280;68840;50.272;12.818;2023-08-30T00:04:06;95251;;;13.4;82.6
77469;BME280;68840;50.272;12.818;2023-08-30T00:06:06;95243;;;13.4;82.3
77469;BME280;68840;50.272;12.818;2023-08-30T00:08:06;95246;;;13.4;82.8
77469;BME280;68840;50.272;12.818;2023-08-30T00:10:06;95249;;;13.4;82.8
77469;BME280;68840;50.272;12.818;2023-08-30T00:12:06;95253;;;13.4;83.2
77469;BME280;68840;50.272;12.818;2023-08-30T00:14:06;95257;;;13.4;83.6
77469;BME280;68840;50.272;12.818;2023-08-30T00:16:06;95258;;;13.4;83.7
77469;BME280;68840;50.272;12.818;2023-08-30T00:18:06;95259;;;13.3;84.0
77469;BME280;68840;50.272;12.818;2023-08-30T00:20:07;95254;;;13.3;84.0
77469;BME280;68840;50.272;12.818;2023-08-30T00:22:07;95254;;;13.3;84.0
77469;BME280;68840;50.272;12.818;2023-08-30T00:24:05;95254;;;13.3;84.0
77469;BME280;68840;50.272;12.818;2023-08-30T00:26:05;95254;;;13.3;83.8
77469;BME280;68840;50.272;12.818;2023-08-30T00:28:06;95260;;;13.3;84.5
77469;BME280;68840;50.272;12.818;2023-08-30T00:30:08;95259;;;13.3;84.8
77469;BME280;68840;50.272;12.818;2023-08-30T00:32:06;95257;;;13.2;85.1
77469;BME280;68840;50.272;12.818;2023-08-30T00:34:05;95255;;;13.2;85.5
77469;BME280;68840;50.272;12.818;2023-08-30T00:36:06;95256;;;13.2;85.8
77469;BME280;68840;50.272;12.818;2023-08-30T00:38:05;95259;;;13.2;86.0
77469;BME280;68840;50.272;12.818;2023-08-30T00:40:06;95264;;;13.2;85.9
77469;BME280;68840;50.272;12.818;2023-08-30T00:42:07;95267;;;13.2;85.9
77469;BME280;68840;50.272;12.818;2023-08-30T00:44:06;95270;;;13.2;85.9
77469;BME280;68840;50.272;12.818;2023-08-30T00:46:05;95269;;;13.1;86.5
77469;BME280;68840;50.272;12.818;2023-08-30T00:48:06;95274;;;13.1;87.1
77469;BME280;68840;50.272;12.818;2023-08-30T00:50:06;95273;;;13.1;86.8
77469;BME280;68840;50.272;12.818;2023-08-30T00:52:07;95277;;;13.1;87.1
77469;BME280;68840;50.272;12.818;2023-08-30T00:54:06;95278;;;13.1;87.5
77469;BME280;68840;50.272;12.818;2023-08-30T00:56:06;95279;;;13.1;87.9
77469;BME280;68840;50.272;12.818;2023-08-30T00:58:07;95284;;;13.1;88.1
77469;BME280;68840;50.272;12.818;2023-08-30T01:00:06;95288;;;13.1;88.2
77469;BME280;68840;50.272;12.818;2023-08-30T01:02:05;95288;;;13.1;88.5
77469;BME280;68840;50.272;12.818;2023-08-30T01:04:06;95290;;;13.1;88.6
77469;BME280;68840;50.272;12.818;2023-08-30T01:06:05;95291;;;13.1;88.9
77469;BME280;68840;50.272;12.818;2023-08-30T01:08:05;95293;;;13.1;89.2
77469;BME280;68840;50.272;12.818;2023-08-30T01:10:06;95295;;;13.1;89.6
77469;BME280;68840;50.272;12.818;2023-08-30T01:12:11;95296;;;13.1;89.0
77469;BME280;68840;50.272;12.818;2023-08-30T01:14:09;95299;;;13.1;89.3
77469;BME280;68840;50.272;12.818;2023-08-30T01:16:06;95301;;;13.1;89.2
77469;BME280;68840;50.272;12.818;2023-08-30T01:18:07;95299;;;13.1;89.0
77469;BME280;68840;50.272;12.818;2023-08-30T01:20:08;95299;;;13.1;89.0
77469;BME280;68840;50.272;12.818;2023-08-30T01:22:14;95301;;;13.1;89.4
77469;BME280;68840;50.272;12.818;2023-08-30T01:24:07;95301;;;13.0;89.5
77469;BME280;68840;50.272;12.818;2023-08-30T01:26:09;95300;;;13.0;89.6
77469;BME280;68840;50.272;12.818;2023-08-30T01:28:06;95298;;;13.0;89.5
77469;BME280;68840;50.272;12.818;2023-08-30T01:30:08;95296;;;13.0;89.8
77469;BME280;68840;50.272;12.818;2023-08-30T01:32:08;95292;;;13.0;89.4
77469;BME280;68840;50.272;12.818;2023-08-30T01:34:06;95294;;;13.0;89.2
77469;BME280;68840;50.272;12.818;2023-08-30T01:36:06;95296;;;13.0;89.6
77469;BME280;68840;50.272;12.818;2023-08-30T01:38:06;95298;;;13.0;89.6
77469;BME280;68840;50.272;12.818;2023-08-30T01:40:07;95297;;;13.0;89.3
77469;BME280;68840;50.272;12.818;2023-08-30T01:42:07;95296;;;13.1;89.4
77469;BME280;68840;50.272;12.818;2023-08-30T01:44:07;95295;;;13.1;88.8
77469;BME280;68840;50.272;12.818;2023-08-30T01:46:07;95292;;;13.0;88.9
77469;BME280;68840;50.272;12.818;2023-08-30T01:48:08;95293;;;13.0;88.8
77469;BME280;68840;50.272;12.818;2023-08-30T01:50:07;95297;;;13.0;89.1
77469;BME280;68840;50.272;12.818;2023-08-30T01:52:06;95298;;;13.0;89.1
77469;BME280;68840;50.272;12.818;2023-08-30T01:54:06;95298;;;13.0;89.2
77469;BME280;68840;50.272;12.818;2023-08-30T01:56:05;95296;;;13.0;89.2
77469;BME280;68840;50.272;12.818;2023-08-30T01:58:06;95298;;;13.0;89.0
77469;BME280;68840;50.272;12.818;2023-08-30T02:00:07;95301;;;13.0;89.0
77469;BME280;68840;50.272;12.818;2023-08-30T02:02:05;95305;;;13.0;89.0
77469;BME280;68840;50.272;12.818;2023-08-30T02:04:05;95306;;;13.0;88.8
77469;BME280;68840;50.272;12.818;2023-08-30T02:06:10;95309;;;13.0;88.9
77469;BME280;68840;50.272;12.818;2023-08-30T02:08:12;95310;;;13.0;88.7
77469;BME280;68840;50.272;12.818;2023-08-30T02:10:08;95311;;;12.9;88.8
77469;BME280;68840;50.272;12.818;2023-08-30T02:12:14;95309;;;12.9;89.1
77469;BME280;68840;50.272;12.818;2023-08-30T02:14:08;95309;;;12.9;89.2
77469;BME280;68840;50.272;12.818;2023-08-30T02:16:08;95307;;;12.9;89.2
77469;BME280;68840;50.272;12.818;2023-08-30T02:18:06;95307;;;12.9;89.1
77469;BME280;68840;50.272;12.818;2023-08-30T02:20:07;95305;;;12.9;89.2
77469;BME280;68840;50.272;12.818;2023-08-30T02:22:05;95302;;;12.9;89.3
77469;BME280;68840;50.272;12.818;2023-08-30T02:24:06;95301;;;12.9;89.1
77469;BME280;68840;50.272;12.818;2023-08-30T02:26:05;95301;;;12.9;89.5
77469;BME280;68840;50.272;12.818;2023-08-30T02:28:05;95303;;;12.9;89.2
77469;BME280;68840;50.272;12.818;2023-08-30T02:30:06;95305;;;12.9;89.2
77469;BME280;68840;50.272;12.818;2023-08-30T02:32:06;95306;;;12.9;89.2
77469;BME280;68840;50.272;12.818;2023-08-30T02:34:05;95308;;;12.9;89.3
77469;BME280;68840;50.272;12.818;2023-08-30T02:36:06;95306;;;12.9;89.3
77469;BME280;68840;50.272;12.818;2023-08-30T02:38:07;95305;;;12.9;89.3
77469;BME280;68840;50.272;12.818;2023-08-30T02:40:06;95301;;;12.9;89.4
77469;BME280;68840;50.272;12.818;2023-08-30T02:42:05;95297;;;12.9;89.6
77469;BME280;68840;50.272;12.818;2023-08-30T02:44:07;95296;;;12.9;89.5
77469;BME280;68840;50.272;12.818;2023-08-30T02:46:05;95294;;;12.9;89.2
77469;BME280;68840;50.272;12.818;2023-08-30T02:48:06;95292;;;12.9;88.9
77469;BME280;68840;50.272;12.818;2023-08-30T02:50:06;95288;;;12.9;88.9
77469;BME280;68840;50.272;12.818;2023-08-30T02:52:06;95286;;;12.9;88.9
77469;BME280;68840;50.272;12.818;2023-08-30T02:54:05;95284;;;12.9;88.5
77469;BME280;68840;50.272;12.818;2023-08-30T02:56:05;95286;;;12.9;88.8
77469;BME280;68840;50.272;12.818;2023-08-30T02:58:05;95287;;;12.9;88.6
77469;BME280;68840;50.272;12.818;2023-08-30T03:00:07;95290;;;12.9;89.1
77469;BME280;68840;50.272;12.818;2023-08-30T03:02:05;95288;;;12.9;88.8
77469;BME280;68840;50.272;12.818;2023-08-30T03:04:06;95288;;;12.9;88.9
77469;BME280;68840;50.272;12.818;2023-08-30T03:06:05;95287;;;13.0;88.9
77469;BME280;68840;50.272;12.818;2023-08-30T03:08:05;95284;;;13.0;88.6
77469;BME280;68840;50.272;12.818;2023-08-30T03:10:06;95284;;;13.0;88.5
77469;BME280;68840;50.272;12.818;2023-08-30T03:12:06;95284;;;13.0;88.4
77469;BME280;68840;50.272;12.818;2023-08-30T03:14:05;95283;;;13.0;88.1
77469;BME280;68840;50.272;12.818;2023-08-30T03:16:13;95283;;;13.0;88.2
77469;BME280;68840;50.272;12.818;2023-08-30T03:18:06;95283;;;13.0;88.3
77469;BME280;68840;50.272;12.818;2023-08-30T03:20:06;95282;;;13.0;88.2
77469;BME280;68840;50.272;12.818;2023-08-30T03:22:05;95282;;;13.0;88.5
77469;BME280;68840;50.272;12.818;2023-08-30T03:24:06;95286;;;13.0;88.2
77469;BME280;68840;50.272;12.818;2023-08-30T03:26:09;95287;;;13.0;87.9
77469;BME280;68840;50.272;12.818;2023-08-30T03:28:05;95288;;;13.1;87.5
77469;BME280;68840;50.272;12.818;2023-08-30T03:30:06;95291;;;13.1;88.0
77469;BME280;68840;50.272;12.818;2023-08-30T03:32:05;95296;;;13.1;88.0
77469;BME280;68840;50.272;12.818;2023-08-30T03:34:05;95296;;;13.1;88.1
77469;BME280;68840;50.272;12.818;2023-08-30T03:36:06;95299;;;13.1;88.0
77469;BME280;68840;50.272;12.818;2023-08-30T03:38:05;95302;;;13.1;88.4
77469;BME280;68840;50.272;12.818;2023-08-30T03:40:07;95306;;;13.1;88.4
77469;BME280;68840;50.272;12.818;2023-08-30T03:42:06;95306;;;13.1;88.5
77469;BME280;68840;50.272;12.818;2023-08-30T03:44:05;95305;;;13.1;88.7
77469;BME280;68840;50.272;12.818;2023-08-30T03:46:05;95305;;;13.1;89.0
77469;BME280;68840;50.272;12.818;2023-08-30T03:48:06;95304;;;13.1;89.0
77469;BME280;68840;50.272;12.818;2023-08-30T03:50:06;95304;;;13.1;89.4
77469;BME280;68840;50.272;12.818;2023-08-30T03:52:05;95304;;;13.1;89.4
77469;BME280;68840;50.272;12.818;2023-08-30T03:54:06;95305;;;13.1;89.6
77469;BME280;68840;50.272;12.818;2023-08-30T03:56:05;95303;;;13.1;89.8
77469;BME280;68840;50.272;12.818;2023-08-30T03:58:05;95303;;;13.1;89.8
77469;BME280;68840;50.272;12.818;2023-08-30T04:00:07;95301;;;13.1;90.0
77469;BME280;68840;50.272;12.818;2023-08-30T04:02:05;95300;;;13.1;90.1
77469;BME280;68840;50.272;12.818;2023-08-30T04:04:05;95301;;;13.1;90.2
77469;BME280;68840;50.272;12.818;2023-08-30T04:06:05;95305;;;13.1;90.1
77469;BME280;68840;50.272;12.818;2023-08-30T04:08:07;95309;;;13.1;90.1
77469;BME280;68840;50.272;12.818;2023-08-30T04:10:07;95307;;;13.1;90.1
77469;BME280;68840;50.272;12.818;2023-08-30T04:12:06;95305;;;13.1;90.1
77469;BME280;68840;50.272;12.818;2023-08-30T04:14:05;95303;;;13.1;90.1
77469;BME280;68840;50.272;12.818;2023-08-30T04:16:06;95301;;;13.2;90.1
77469;BME280;68840;50.272;12.818;2023-08-30T04:18:06;95299;;;13.2;90.1
77469;BME280;68840;50.272;12.818;2023-08-30T04:20:06;95301;;;13.2;90.1
77469;BME280;68840;50.272;12.818;2023-08-30T04:22:05;95301;;;13.2;90.1
77469;BME280;68840;50.272;12.818;2023-08-30T04:24:06;95301;;;13.2;90.1
77469;BME280;68840;50.272;12.818;2023-08-30T04:26:06;95301;;;13.2;90.0
77469;BME280;68840;50.272;12.818;2023-08-30T04:28:06;95303;;;13.2;90.2
77469;BME280;68840;50.272;12.818;2023-08-30T04:30:06;95305;;;13.2;90.0
77469;BME280;68840;50.272;12.818;2023-08-30T04:32:06;95306;;;13.2;90.1
77469;BME280;68840;50.272;12.818;2023-08-30T04:34:05;95308;;;13.2;90.3
77469;BME280;68840;50.272;12.818;2023-08-30T04:36:06;95307;;;13.2;90.2
77469;BME280;68840;50.272;12.818;2023-08-30T04:38:06;95305;;;13.3;90.0
77469;BME280;68840;50.272;12.818;2023-08-30T04:40:07;95303;;;13.3;90.1
77469;BME280;68840;50.272;12.818;2023-08-30T04:42:06;95304;;;13.3;90.0
77469;BME280;68840;50.272;12.818;2023-08-30T04:44:05;95304;;;13.3;89.8
77469;BME280;68840;50.272;12.818;2023-08-30T04:46:06;95307;;;13.3;89.9
77469;BME280;68840;50.272;12.818;2023-08-30T04:48:06;95309;;;13.3;89.9
77469;BME280;68840;50.272;12.818;2023-08-30T04:50:06;95309;;;13.3;90.0
77469;BME280;68840;50.272;12.818;2023-08-30T04:52:06;95309;;;13.3;90.1
77469;BME280;68840;50.272;12.818;2023-08-30T04:54:06;95311;;;13.3;89.8
77469;BME280;68840;50.272;12.818;2023-08-30T04:56:10;95313;;;13.3;90.0
77469;BME280;68840;50.272;12.818;2023-08-30T04:58:05;95314;;;13.3;90.0
77469;BME280;68840;50.272;12.818;2023-08-30T05:00:07;95312;;;13.3;89.7
77469;BME280;68840;50.272;12.818;2023-08-30T05:02:05;95311;;;13.3;89.9
77469;BME280;68840;50.272;12.818;2023-08-30T05:04:05;95311;;;13.3;90.1
77469;BME280;68840;50.272;12.818;2023-08-30T05:06:06;95311;;;13.3;89.8
77469;BME280;68840;50.272;12.818;2023-08-30T05:08:06;95313;;;13.3;90.0
77469;BME280;68840;50.272;12.818;2023-08-30T05:10:06;95314;;;13.3;90.1
77469;BME280;68840;50.272;12.818;2023-08-30T05:12:06;95313;;;13.3;90.3
77469;BME280;68840;50.272;12.818;2023-08-30T05:14:05;95313;;;13.3;90.0
77469;BME280;68840;50.272;12.818;2023-08-30T05:16:05;95313;;;13.3;90.1
77469;BME280;68840;50.272;12.818;2023-08-30T05:18:05;95312;;;13.3;90.5
77469;BME280;68840;50.272;12.818;2023-08-30T05:20:06;95312;;;13.3;90.4
77469;BME280;68840;50.272;12.818;2023-08-30T05:22:05;95311;;;13.3;90.4
77469;BME280;68840;50.272;12.818;2023-08-30T05:24:07;95312;;;13.4;90.1
77469;BME280;68840;50.272;12.818;2023-08-30T05:26:05;95311;;;13.4;89.9
77469;BME280;68840;50.272;12.818;2023-08-30T05:28:05;95311;;;13.4;90.2
77469;BME280;68840;50.272;12.818;2023-08-30T05:30:06;95312;;;13.4;90.2
77469;BME280;68840;50.272;12.818;2023-08-30T05:32:06;95311;;;13.4;90.5
77469;BME280;68840;50.272;12.818;2023-08-30T05:34:05;95310;;;13.4;90.4
77469;BME280;68840;50.272;12.818;2023-08-30T05:36:05;95310;;;13.4;90.2
77469;BME280;68840;50.272;12.818;2023-08-30T05:38:05;95307;;;13.4;90.3
77469;BME280;68840;50.272;12.818;2023-08-30T05:40:07;95307;;;13.5;90.2
77469;BME280;68840;50.272;12.818;2023-08-30T05:42:06;95309;;;13.5;90.1
77469;BME280;68840;50.272;12.818;2023-08-30T05:44:06;95311;;;13.4;90.3
77469;BME280;68840;50.272;12.818;2023-08-30T05:46:08;95309;;;13.4;90.5
77469;BME280;68840;50.272;12.818;2023-08-30T05:48:06;95310;;;13.4;90.3
77469;BME280;68840;50.272;12.818;2023-08-30T05:50:06;95310;;;13.4;90.6
77469;BME280;68840;50.272;12.818;2023-08-30T05:52:05;95310;;;13.4;90.6
77469;BME280;68840;50.272;12.818;2023-08-30T05:54:06;95310;;;13.4;90.8
77469;BME280;68840;50.272;12.818;2023-08-30T05:56:05;95311;;;13.4;90.6
77469;BME280;68840;50.272;12.818;2023-08-30T05:58:05;95311;;;13.4;90.6
77469;BME280;68840;50.272;12.818;2023-08-30T06:00:09;95312;;;13.4;90.8
77469;BME280;68840;50.272;12.818;2023-08-30T06:02:05;95311;;;13.4;90.8
77469;BME280;68840;50.272;12.818;2023-08-30T06:04:05;95312;;;13.4;91.0
77469;BME280;68840;50.272;12.818;2023-08-30T06:06:06;95310;;;13.5;91.1
77469;BME280;68840;50.272;12.818;2023-08-30T06:08:06;95308;;;13.5;91.1
77469;BME280;68840;50.272;12.818;2023-08-30T06:10:06;95306;;;13.5;90.9
77469;BME280;68840;50.272;12.818;2023-08-30T06:12:06;95311;;;13.5;91.0
77469;BME280;68840;50.272;12.818;2023-08-30T06:14:06;95311;;;13.5;91.3
77469;BME280;68840;50.272;12.818;2023-08-30T06:16:05;95311;;;13.6;90.9
77469;BME280;68840;50.272;12.818;2023-08-30T06:18:05;95310;;;13.6;90.9
77469;BME280;68840;50.272;12.818;2023-08-30T06:20:06;95309;;;13.6;90.5
77469;BME280;68840;50.272;12.818;2023-08-30T06:22:05;95306;;;13.6;90.8
77469;BME280;68840;50.272;12.818;2023-08-30T06:24:06;95304;;;13.6;91.0
77469;BME280;68840;50.272;12.818;2023-08-30T06:26:06;95306;;;13.7;91.0
77469;BME280;68840;50.272;12.818;2023-08-30T06:28:05;95305;;;13.7;90.8
77469;BME280;68840;50.272;12.818;2023-08-30T06:30:06;95308;;;13.8;90.8
77469;BME280;68840;50.272;12.818;2023-08-30T06:32:06;95309;;;13.8;90.3
77469;BME280;68840;50.272;12.818;2023-08-30T06:34:05;95310;;;13.8;91.1
77469;BME280;68840;50.272;12.818;2023-08-30T06:36:06;95310;;;13.9;90.2
77469;BME280;68840;50.272;12.818;2023-08-30T06:38:05;95309;;;13.9;90.7
77469;BME280;68840;50.272;12.818;2023-08-30T06:40:06;95308;;;13.9;90.9
77469;BME280;68840;50.272;12.818;2023-08-30T06:42:06;95307;;;14.0;91.9
77469;BME280;68840;50.272;12.818;2023-08-30T06:44:05;95305;;;14.1;91.4
77469;BME280;68840;50.272;12.818;2023-08-30T06:46:05;95306;;;14.2;90.6
77469;BME280;68840;50.272;12.818;2023-08-30T06:48:06;95305;;;14.3;92.4
77469;BME280;68840;50.272;12.818;2023-08-30T06:50:09;95301;;;14.4;90.7
77469;BME280;68840;50.272;12.818;2023-08-30T06:52:05;95299;;;14.5;89.8
77469;BME280;68840;50.272;12.818;2023-08-30T06:54:05;95297;;;14.6;88.1
77469;BME280;68840;50.272;12.818;2023-08-30T06:56:05;95299;;;14.7;86.9
77469;BME280;68840;50.272;12.818;2023-08-30T06:58:05;95299;;;14.8;87.2
77469;BME280;68840;50.272;12.818;2023-08-30T07:00:07;95299;;;14.8;87.0
77469;BME280;68840;50.272;12.818;2023-08-30T07:02:06;95298;;;14.9;89.7
77469;BME280;68840;50.272;12.818;2023-08-30T07:04:05;95297;;;15.0;87.3
77469;BME280;68840;50.272;12.818;2023-08-30T07:06:05;95293;;;15.1;87.1
77469;BME280;68840;50.272;12.818;2023-08-30T07:08:06;95291;;;15.2;85.0
77469;BME280;68840;50.272;12.818;2023-08-30T07:10:06;95292;;;15.4;84.8
77469;BME280;68840;50.272;12.818;2023-08-30T07:12:06;95291;;;15.5;83.4
77469;BME280;68840;50.272;12.818;2023-08-30T07:14:06;95288;;;15.6;82.1
77469;BME280;68840;50.272;12.818;2023-08-30T07:16:05;95284;;;15.7;82.5
77469;BME280;68840;50.272;12.818;2023-08-30T07:18:06;95283;;;15.9;83.6
77469;BME280;68840;50.272;12.818;2023-08-30T07:20:09;95282;;;16.0;81.5
77469;BME280;68840;50.272;12.818;2023-08-30T07:22:05;95283;;;16.2;78.8
77469;BME280;68840;50.272;12.818;2023-08-30T07:24:07;95283;;;16.3;77.5
77469;BME280;68840;50.272;12.818;2023-08-30T07:26:05;95285;;;16.4;78.1
77469;BME280;68840;50.272;12.818;2023-08-30T07:28:06;95284;;;16.5;77.3
77469;BME280;68840;50.272;12.818;2023-08-30T07:30:07;95283;;;16.6;78.0
77469;BME280;68840;50.272;12.818;2023-08-30T07:32:05;95287;;;16.7;75.4
77469;BME280;68840;50.272;12.818;2023-08-30T07:34:06;95287;;;16.8;75.1
77469;BME280;68840;50.272;12.818;2023-08-30T07:36:06;95289;;;16.9;74.1
77469;BME280;68840;50.272;12.818;2023-08-30T07:38:05;95287;;;17.0;74.1
77469;BME280;68840;50.272;12.818;2023-08-30T07:40:07;95289;;;17.0;73.0
77469;BME280;68840;50.272;12.818;2023-08-30T07:42:07;95288;;;17.1;77.1
77469;BME280;68840;50.272;12.818;2023-08-30T07:44:06;95290;;;17.2;72.9
77469;BME280;68840;50.272;12.818;2023-08-30T07:46:06;95289;;;17.3;73.6
77469;BME280;68840;50.272;12.818;2023-08-30T07:48:06;95287;;;17.4;71.2
77469;BME280;68840;50.272;12.818;2023-08-30T07:50:07;95286;;;17.5;70.9
77469;BME280;68840;50.272;12.818;2023-08-30T07:52:08;95285;;;17.6;71.0
77469;BME280;68840;50.272;12.818;2023-08-30T07:54:05;95285;;;17.7;71.3
77469;BME280;68840;50.272;12.818;2023-08-30T07:56:05;95280;;;17.9;69.6
77469;BME280;68840;50.272;12.818;2023-08-30T07:58:05;95278;;;18.0;70.6
77469;BME280;68840;50.272;12.818;2023-08-30T08:00:06;95275;;;18.1;68.1
77469;BME280;68840;50.272;12.818;2023-08-30T08:02:07;95273;;;18.1;68.0
77469;BME280;68840;50.272;12.818;2023-08-30T08:04:05;95271;;;18.2;68.2
77469;BME280;68840;50.272;12.818;2023-08-30T08:06:05;95273;;;18.3;67.1
77469;BME280;68840;50.272;12.818;2023-08-30T08:08:05;95276;;;18.4;66.8
77469;BME280;68840;50.272;12.818;2023-08-30T08:10:06;95277;;;18.5;64.8
77469;BME280;68840;50.272;12.818;2023-08-30T08:12:05;95275;;;18.6;63.3
77469;BME280;68840;50.272;12.818;2023-08-30T08:14:05;95272;;;18.7;65.7
77469;BME280;68840;50.272;12.818;2023-08-30T08:16:06;95271;;;18.8;63.8
77469;BME280;68840;50.272;12.818;2023-08-30T08:18:05;95271;;;18.8;61.7
77469;BME280;68840;50.272;12.818;2023-08-30T08:20:06;95266;;;18.9;61.5
77469;BME280;68840;50.272;12.818;2023-08-30T08:22:05;95265;;;19.0;62.9
77469;BME280;68840;50.272;12.818;2023-08-30T08:24:06;95262;;;19.0;62.9
77469;BME280;68840;50.272;12.818;2023-08-30T08:26:07;95261;;;19.0;62.9
77469;BME280;68840;50.272;12.818;2023-08-30T08:28:05;95262;;;19.0;61.7
77469;BME280;68840;50.272;12.818;2023-08-30T08:30:06;95265;;;19.1;61.7
77469;BME280;68840;50.272;12.818;2023-08-30T08:32:05;95267;;;19.1;60.5
77469;BME280;68840;50.272;12.818;2023-08-30T08:34:08;95267;;;19.0;61.8
77469;BME280;68840;50.272;12.818;2023-08-30T08:36:05;95264;;;19.0;61.5
77469;BME280;68840;50.272;12.818;2023-08-30T08:38:05;95263;;;18.9;62.6
77469;BME280;68840;50.272;12.818;2023-08-30T08:40:08;95262;;;18.9;63.4
77469;BME280;68840;50.272;12.818;2023-08-30T08:42:06;95262;;;18.9;63.6
77469;BME280;68840;50.272;12.818;2023-08-30T08:44:06;95262;;;18.8;62.6
77469;BME280;68840;50.272;12.818;2023-08-30T08:46:06;95260;;;18.8;66.1
77469;BME280;68840;50.272;12.818;2023-08-30T08:48:06;95261;;;18.9;64.4
77469;BME280;68840;50.272;12.818;2023-08-30T08:50:06;95260;;;19.0;64.9
77469;BME280;68840;50.272;12.818;2023-08-30T08:52:05;95260;;;19.1;62.9
77469;BME280;68840;50.272;12.818;2023-08-30T08:54:06;95261;;;19.3;66.3
77469;BME280;68840;50.272;12.818;2023-08-30T08:56:08;95257;;;19.4;61.4
77469;BME280;68840;50.272;12.818;2023-08-30T08:58:05;95251;;;19.5;64.2
77469;BME280;68840;50.272;12.818;2023-08-30T09:00:06;95251;;;19.7;61.8
77469;BME280;68840;50.272;12.818;2023-08-30T09:02:06;95251;;;19.8;59.5
77469;BME280;68840;50.272;12.818;2023-08-30T09:04:06;95248;;;19.9;59.1
77469;BME280;68840;50.272;12.818;2023-08-30T09:06:05;95249;;;20.0;57.7
77469;BME280;68840;50.272;12.818;2023-08-30T09:08:06;95248;;;20.1;59.5
77469;BME280;68840;50.272;12.818;2023-08-30T09:10:06;95245;;;20.1;58.3
77469;BME280;68840;50.272;12.818;2023-08-30T09:12:06;95247;;;20.2;58.5
77469;BME280;68840;50.272;12.818;2023-08-30T09:14:05;95249;;;20.3;57.7
77469;BME280;68840;50.272;12.818;2023-08-30T09:16:11;95250;;;20.4;54.1
77469;BME280;68840;50.272;12.818;2023-08-30T09:18:14;95250;;;20.5;55.2
77469;BME280;68840;50.272;12.818;2023-08-30T09:20:06;95250;;;20.6;53.6
77469;BME280;68840;50.272;12.818;2023-08-30T09:22:05;95252;;;20.7;53.6
77469;BME280;68840;50.272;12.818;2023-08-30T09:24:06;95250;;;20.9;52.3
77469;BME280;68840;50.272;12.818;2023-08-30T09:26:05;95247;;;21.0;50.4
77469;BME280;68840;50.272;12.818;2023-08-30T09:28:05;95244;;;21.1;50.7
77469;BME280;68840;50.272;12.818;2023-08-30T09:30:08;95244;;;21.1;49.7
77469;BME280;68840;50.272;12.818;2023-08-30T09:32:08;95244;;;21.1;50.3
77469;BME280;68840;50.272;12.818;2023-08-30T09:34:06;95245;;;21.1;50.8
77469;BME280;68840;50.272;12.818;2023-08-30T09:36:10;95245;;;21.1;52.1
77469;BME280;68840;50.272;12.818;2023-08-30T09:38:05;95246;;;21.1;52.9
77469;BME280;68840;50.272;12.818;2023-08-30T09:40:06;95243;;;21.1;50.9
77469;BME280;68840;50.272;12.818;2023-08-30T09:42:06;95244;;;21.1;50.0
77469;BME280;68840;50.272;12.818;2023-08-30T09:44:08;95243;;;21.0;50.4
77469;BME280;68840;50.272;12.818;2023-08-30T09:46:05;95244;;;21.0;50.5
77469;BME280;68840;50.272;12.818;2023-08-30T09:48:06;95247;;;20.9;49.3
77469;BME280;68840;50.272;12.818;2023-08-30T09:50:06;95246;;;20.9;50.2
77469;BME280;68840;50.272;12.818;2023-08-30T09:52:06;95247;;;20.9;52.6
77469;BME280;68840;50.272;12.818;2023-08-30T09:54:06;95249;;;20.9;51.3
77469;BME280;68840;50.272;12.818;2023-08-30T09:56:08;95247;;;20.9;49.8
77469;BME280;68840;50.272;12.818;2023-08-30T09:58:06;95243;;;21.0;49.9
77469;BME280;68840;50.272;12.818;2023-08-30T10:00:07;95243;;;21.0;52.7
77469;BME280;68840;50.272;12.818;2023-08-30T10:02:07;95247;;;21.1;51.9
77469;BME280;68840;50.272;12.818;2023-08-30T10:04:06;95246;;;21.2;49.8
77469;BME280;68840;50.272;12.818;2023-08-30T10:06:06;95243;;;21.2;49.6
77469;BME280;68840;50.272;12.818;2023-08-30T10:08:07;95244;;;21.3;50.1
77469;BME280;68840;50.272;12.818;2023-08-30T10:10:07;95242;;;21.3;50.6
77469;BME280;68840;50.272;12.818;2023-08-30T10:12:06;95241;;;21.3;50.8
77469;BME280;68840;50.272;12.818;2023-08-30T10:14:07;95242;;;21.3;49.2
77469;BME280;68840;50.272;12.818;2023-08-30T10:16:06;95238;;;21.3;50.1
77469;BME280;68840;50.272;12.818;2023-08-30T10:18:07;95240;;;21.3;48.9
77469;BME280;68840;50.272;12.818;2023-08-30T10:20:06;95241;;;21.2;49.4
77469;BME280;68840;50.272;12.818;2023-08-30T10:22:08;95244;;;21.2;49.8
77469;BME280;68840;50.272;12.818;2023-08-30T10:24:08;95244;;;21.2;50.2
77469;BME280;68840;50.272;12.818;2023-08-30T10:26:06;95242;;;21.1;48.8
77469;BME280;68840;50.272;12.818;2023-08-30T10:28:06;95240;;;21.1;48.9
77469;BME280;68840;50.272;12.818;2023-08-30T10:30:08;95239;;;21.0;49.2
77469;BME280;68840;50.272;12.818;2023-08-30T10:32:06;95241;;;20.9;48.6
77469;BME280;68840;50.272;12.818;2023-08-30T10:34:13;95242;;;20.8;49.6
77469;BME280;68840;50.272;12.818;2023-08-30T10:36:06;95246;;;20.8;49.4
77469;BME280;68840;50.272;12.818;2023-08-30T10:38:05;95248;;;20.7;48.6
77469;BME280;68840;50.272;12.818;2023-08-30T10:40:07;95246;;;20.6;48.8
77469;BME280;68840;50.272;12.818;2023-08-30T10:42:09;95248;;;20.6;49.8
77469;BME280;68840;50.272;12.818;2023-08-30T10:44:05;95247;;;20.6;48.9
77469;BME280;68840;50.272;12.818;2023-08-30T10:46:07;95248;;;20.7;50.2
77469;BME280;68840;50.272;12.818;2023-08-30T10:48:06;95247;;;20.7;49.2
77469;BME280;68840;50.272;12.818;2023-08-30T10:50:07;95244;;;20.8;49.3
77469;BME280;68840;50.272;12.818;2023-08-30T10:52:12;95246;;;20.9;48.2
77469;BME280;68840;50.272;12.818;2023-08-30T10:54:14;95242;;;21.1;48.2
77469;BME280;68840;50.272;12.818;2023-08-30T10:56:13;95242;;;21.2;47.9
77469;BME280;68840;50.272;12.818;2023-08-30T10:58:05;95246;;;21.4;48.1
77469;BME280;68840;50.272;12.818;2023-08-30T11:00:08;95250;;;21.6;47.5
77469;BME280;68840;50.272;12.818;2023-08-30T11:02:06;95252;;;21.7;46.1
77469;BME280;68840;50.272;12.818;2023-08-30T11:04:06;95250;;;21.8;46.0
77469;BME280;68840;50.272;12.818;2023-08-30T11:06:05;95252;;;21.8;46.5
77469;BME280;68840;50.272;12.818;2023-08-30T11:08:10;95252;;;21.9;45.6
77469;BME280;68840;50.272;12.818;2023-08-30T11:10:06;95252;;;21.9;45.5